sensor_id;sensor_type;location;lat;lon;timestamp;temperature;humidity
11840;DHT22;5979;50.800;4.904;2023-11-19T00:00:21;12.60;99.90
11840;DHT22;5979;50.800;4.904;2023-11-19T00:02:49;12.70;99.90
11840;DHT22;5979;50.800;4.904;2023-11-19T00:05:14;12.70;99.90
11840;DHT22;5979;50.800;4.904;2023-11-19T00:07:40;12.80;99.90
11840;DHT22;5979;50.800;4.904;2023-11-19T00:10:10;12.80;99.90
11840;DHT22;5979;50.800;4.904;2023-11-19T00:12:38;12.80;99.90
11840;DHT22;5979;50.800;4.904;2023-11-19T00:15:04;12.80;99.90
11840;DHT22;5979;50.800;4.904;2023-11-19T00:17:30;12.80;99.90
11840;DHT22;5979;50.800;4.904;2023-11-19T00:19:56;12.90;99.90
11840;DHT22;5979;50.800;4.904;2023-11-19T00:22:21;12.90;99.90
11840;DHT22;5979;50.800;4.904;2023-11-19T00:24:47;12.90;99.90
11840;DHT22;5979;50.800;4.904;2023-11-19T00:27:13;12.90;99.90
11840;DHT22;5979;50.800;4.904;2023-11-19T00:29:39;12.90;99.90
11840;DHT22;5979;50.800;4.904;2023-11-19T00:32:05;12.90;99.90
11840;DHT22;5979;50.800;4.904;2023-11-19T00:34:33;12.90;99.90
11840;DHT22;5979;50.800;4.904;2023-11-19T00:36:58;12.90;99.90
11840;DHT22;5979;50.800;4.904;2023-11-19T00:39:24;12.90;99.90
11840;DHT22;5979;50.800;4.904;2023-11-19T00:41:50;12.90;99.90
11840;DHT22;5979;50.800;4.904;2023-11-19T00:44:15;13.00;99.90
11840;DHT22;5979;50.800;4.904;2023-11-19T00:46:41;12.90;99.90
11840;DHT22;5979;50.800;4.904;2023-11-19T00:49:07;12.90;99.90
11840;DHT22;5979;50.800;4.904;2023-11-19T00:51:32;12.90;99.90
11840;DHT22;5979;50.800;4.904;2023-11-19T00:53:58;13.00;99.90
11840;DHT22;5979;50.800;4.904;2023-11-19T00:56:24;13.00;99.90
11840;DHT22;5979;50.800;4.904;2023-11-19T00:58:50;13.00;99.90
11840;DHT22;5979;50.800;4.904;2023-11-19T01:01:16;12.90;99.90
11840;DHT22;5979;50.800;4.904;2023-11-19T01:03:41;13.00;99.90
11840;DHT22;5979;50.800;4.904;2023-11-19T01:06:07;12.90;99.90
11840;DHT22;5979;50.800;4.904;2023-11-19T01:08:33;13.00;99.90
11840;DHT22;5979;50.800;4.904;2023-11-19T01:11:01;13.00;99.90
11840;DHT22;5979;50.800;4.904;2023-11-19T01:13:27;12.90;99.90
11840;DHT22;5979;50.800;4.904;2023-11-19T01:15:53;13.00;99.90
11840;DHT22;5979;50.800;4.904;2023-11-19T01:18:21;13.00;99.90
11840;DHT22;5979;50.800;4.904;2023-11-19T01:20:47;13.00;99.90
11840;DHT22;5979;50.800;4.904;2023-11-19T01:23:13;12.90;99.90
11840;DHT22;5979;50.800;4.904;2023-11-19T01:25:38;12.90;99.90
11840;DHT22;5979;50.800;4.904;2023-11-19T01:28:04;13.00;99.90
11840;DHT22;5979;50.800;4.904;2023-11-19T01:30:30;12.90;99.90
11840;DHT22;5979;50.800;4.904;2023-11-19T01:32:56;12.90;99.90
11840;DHT22;5979;50.800;4.904;2023-11-19T01:35:21;13.00;99.90
11840;DHT22;5979;50.800;4.904;2023-11-19T01:37:48;13.00;99.90
11840;DHT22;5979;50.800;4.904;2023-11-19T01:40:20;13.00;99.90
11840;DHT22;5979;50.800;4.904;2023-11-19T01:42:46;12.90;99.90
11840;DHT22;5979;50.800;4.904;2023-11-19T01:45:27;12.90;99.90
11840;DHT22;5979;50.800;4.904;2023-11-19T01:48:18;12.90;99.90
11840;DHT22;5979;50.800;4.904;2023-11-19T01:50:43;12.90;99.90
11840;DHT22;5979;50.800;4.904;2023-11-19T01:53:09;12.90;99.90
11840;DHT22;5979;50.800;4.904;2023-11-19T01:55:35;12.90;99.90
11840;DHT22;5979;50.800;4.904;2023-11-19T01:58:01;12.90;99.90
11840;DHT22;5979;50.800;4.904;2023-11-19T02:00:28;12.90;99.90
11840;DHT22;5979;50.800;4.904;2023-11-19T02:02:53;12.90;99.90
11840;DHT22;5979;50.800;4.904;2023-11-19T02:05:20;12.90;99.90
11840;DHT22;5979;50.800;4.904;2023-11-19T02:07:47;12.90;99.90
11840;DHT22;5979;50.800;4.904;2023-11-19T02:10:12;12.90;99.90
11840;DHT22;5979;50.800;4.904;2023-11-19T02:12:43;12.90;99.90
11840;DHT22;5979;50.800;4.904;2023-11-19T02:15:10;12.90;99.90
11840;DHT22;5979;50.800;4.904;2023-11-19T02:17:35;12.80;99.90
11840;DHT22;5979;50.800;4.904;2023-11-19T02:20:04;12.80;99.90
11840;DHT22;5979;50.800;4.904;2023-11-19T02:22:34;12.80;99.90
11840;DHT22;5979;50.800;4.904;2023-11-19T02:25:04;12.80;99.90
11840;DHT22;5979;50.800;4.904;2023-11-19T02:27:53;12.80;99.90
11840;DHT22;5979;50.800;4.904;2023-11-19T02:30:21;12.70;99.90
11840;DHT22;5979;50.800;4.904;2023-11-19T02:32:55;12.70;99.90
11840;DHT22;5979;50.800;4.904;2023-11-19T02:35:23;12.70;99.90
11840;DHT22;5979;50.800;4.904;2023-11-19T02:37:49;12.70;99.90
11840;DHT22;5979;50.800;4.904;2023-11-19T02:40:15;12.70;99.90
11840;DHT22;5979;50.800;4.904;2023-11-19T02:42:41;12.70;99.90
11840;DHT22;5979;50.800;4.904;2023-11-19T02:45:07;12.60;99.90
11840;DHT22;5979;50.800;4.904;2023-11-19T02:47:42;12.60;99.90
11840;DHT22;5979;50.800;4.904;2023-11-19T02:50:09;12.60;99.90
11840;DHT22;5979;50.800;4.904;2023-11-19T02:52:43;12.60;99.90
11840;DHT22;5979;50.800;4.904;2023-11-19T02:55:13;12.50;99.90
11840;DHT22;5979;50.800;4.904;2023-11-19T02:57:40;12.40;99.90
11840;DHT22;5979;50.800;4.904;2023-11-19T03:00:19;12.40;99.90
11840;DHT22;5979;50.800;4.904;2023-11-19T03:02:49;12.40;99.90
11840;DHT22;5979;50.800;4.904;2023-11-19T03:05:25;12.40;99.90
11840;DHT22;5979;50.800;4.904;2023-11-19T03:07:52;12.30;99.90
11840;DHT22;5979;50.800;4.904;2023-11-19T03:10:17;12.30;99.90
11840;DHT22;5979;50.800;4.904;2023-11-19T03:12:44;12.30;99.90
11840;DHT22;5979;50.800;4.904;2023-11-19T03:15:11;12.20;99.90
11840;DHT22;5979;50.800;4.904;2023-11-19T03:17:40;12.20;99.90
11840;DHT22;5979;50.800;4.904;2023-11-19T03:20:08;12.20;99.90
11840;DHT22;5979;50.800;4.904;2023-11-19T03:22:43;12.20;99.90
11840;DHT22;5979;50.800;4.904;2023-11-19T03:25:10;12.20;99.90
11840;DHT22;5979;50.800;4.904;2023-11-19T03:27:36;12.20;99.90
11840;DHT22;5979;50.800;4.904;2023-11-19T03:30:03;12.20;99.90
11840;DHT22;5979;50.800;4.904;2023-11-19T03:32:31;12.20;99.90
11840;DHT22;5979;50.800;4.904;2023-11-19T03:34:57;12.20;99.90
11840;DHT22;5979;50.800;4.904;2023-11-19T03:37:23;12.20;99.90
11840;DHT22;5979;50.800;4.904;2023-11-19T03:39:49;12.20;99.90
11840;DHT22;5979;50.800;4.904;2023-11-19T03:42:15;12.20;99.90
11840;DHT22;5979;50.800;4.904;2023-11-19T03:44:41;12.10;99.90
11840;DHT22;5979;50.800;4.904;2023-11-19T03:47:06;12.10;99.90
11840;DHT22;5979;50.800;4.904;2023-11-19T03:49:32;12.10;99.90
11840;DHT22;5979;50.800;4.904;2023-11-19T03:51:57;12.00;99.90
11840;DHT22;5979;50.800;4.904;2023-11-19T03:54:23;12.00;99.90
11840;DHT22;5979;50.800;4.904;2023-11-19T03:56:49;12.00;99.90
11840;DHT22;5979;50.800;4.904;2023-11-19T03:59:14;12.00;99.90
11840;DHT22;5979;50.800;4.904;2023-11-19T04:01:41;12.00;99.90
11840;DHT22;5979;50.800;4.904;2023-11-19T04:04:06;12.00;99.90
11840;DHT22;5979;50.800;4.904;2023-11-19T04:06:32;11.90;99.90
11840;DHT22;5979;50.800;4.904;2023-11-19T04:08:58;11.90;99.90
11840;DHT22;5979;50.800;4.904;2023-11-19T04:11:24;11.90;99.90
11840;DHT22;5979;50.800;4.904;2023-11-19T04:13:49;11.90;99.90
11840;DHT22;5979;50.800;4.904;2023-11-19T04:16:15;11.90;99.90
11840;DHT22;5979;50.800;4.904;2023-11-19T04:18:41;11.90;99.90
11840;DHT22;5979;50.800;4.904;2023-11-19T04:21:09;11.80;99.90
11840;DHT22;5979;50.800;4.904;2023-11-19T04:23:36;11.90;99.90
11840;DHT22;5979;50.800;4.904;2023-11-19T04:26:03;11.90;99.90
11840;DHT22;5979;50.800;4.904;2023-11-19T04:28:30;11.80;99.90
11840;DHT22;5979;50.800;4.904;2023-11-19T04:30:56;11.80;99.90
11840;DHT22;5979;50.800;4.904;2023-11-19T04:33:22;11.80;99.90
11840;DHT22;5979;50.800;4.904;2023-11-19T04:35:47;11.80;99.90
11840;DHT22;5979;50.800;4.904;2023-11-19T04:38:13;11.90;99.90
11840;DHT22;5979;50.800;4.904;2023-11-19T04:40:39;11.90;99.90
11840;DHT22;5979;50.800;4.904;2023-11-19T04:43:05;11.90;99.90
11840;DHT22;5979;50.800;4.904;2023-11-19T04:45:32;11.90;99.90
11840;DHT22;5979;50.800;4.904;2023-11-19T04:47:58;12.00;99.90
11840;DHT22;5979;50.800;4.904;2023-11-19T04:50:24;12.00;99.90
11840;DHT22;5979;50.800;4.904;2023-11-19T04:52:52;12.00;99.90
11840;DHT22;5979;50.800;4.904;2023-11-19T04:55:20;12.00;99.90
11840;DHT22;5979;50.800;4.904;2023-11-19T04:57:45;12.00;99.90
11840;DHT22;5979;50.800;4.904;2023-11-19T05:00:11;11.90;99.90
11840;DHT22;5979;50.800;4.904;2023-11-19T05:02:37;11.90;99.90
11840;DHT22;5979;50.800;4.904;2023-11-19T05:05:03;11.90;99.90
11840;DHT22;5979;50.800;4.904;2023-11-19T05:07:30;11.90;99.90
11840;DHT22;5979;50.800;4.904;2023-11-19T05:09:56;11.80;99.90
11840;DHT22;5979;50.800;4.904;2023-11-19T05:12:21;11.90;99.90
11840;DHT22;5979;50.800;4.904;2023-11-19T05:14:48;11.90;99.90
11840;DHT22;5979;50.800;4.904;2023-11-19T05:17:19;11.90;99.90
11840;DHT22;5979;50.800;4.904;2023-11-19T05:19:45;11.90;99.90
11840;DHT22;5979;50.800;4.904;2023-11-19T05:22:11;12.00;99.90
11840;DHT22;5979;50.800;4.904;2023-11-19T05:24:38;12.00;99.90
11840;DHT22;5979;50.800;4.904;2023-11-19T05:27:04;12.00;99.90
11840;DHT22;5979;50.800;4.904;2023-11-19T05:29:30;12.00;99.90
11840;DHT22;5979;50.800;4.904;2023-11-19T05:31:56;11.90;99.90
11840;DHT22;5979;50.800;4.904;2023-11-19T05:34:21;11.90;99.90
11840;DHT22;5979;50.800;4.904;2023-11-19T05:36:47;11.90;99.90
11840;DHT22;5979;50.800;4.904;2023-11-19T05:39:13;11.90;99.90
11840;DHT22;5979;50.800;4.904;2023-11-19T05:41:39;11.80;99.90
11840;DHT22;5979;50.800;4.904;2023-11-19T05:44:04;11.80;99.90
11840;DHT22;5979;50.800;4.904;2023-11-19T05:46:30;11.70;99.90
11840;DHT22;5979;50.800;4.904;2023-11-19T05:48:56;11.60;99.90
11840;DHT22;5979;50.800;4.904;2023-11-19T05:51:21;11.60;99.90
11840;DHT22;5979;50.800;4.904;2023-11-19T05:53:49;11.50;99.90
11840;DHT22;5979;50.800;4.904;2023-11-19T05:56:16;11.50;99.90
11840;DHT22;5979;50.800;4.904;2023-11-19T05:58:47;11.40;99.90
11840;DHT22;5979;50.800;4.904;2023-11-19T06:01:13;11.40;99.90
11840;DHT22;5979;50.800;4.904;2023-11-19T06:03:39;11.40;99.90
11840;DHT22;5979;50.800;4.904;2023-11-19T06:06:05;11.40;99.90
11840;DHT22;5979;50.800;4.904;2023-11-19T06:08:31;11.30;99.90
11840;DHT22;5979;50.800;4.904;2023-11-19T06:10:57;11.30;99.90
11840;DHT22;5979;50.800;4.904;2023-11-19T06:13:23;11.30;99.90
11840;DHT22;5979;50.800;4.904;2023-11-19T06:15:49;11.30;99.90
11840;DHT22;5979;50.800;4.904;2023-11-19T06:18:16;11.30;99.90
11840;DHT22;5979;50.800;4.904;2023-11-19T06:20:42;11.40;99.90
11840;DHT22;5979;50.800;4.904;2023-11-19T06:23:08;11.40;99.90
11840;DHT22;5979;50.800;4.904;2023-11-19T06:25:34;11.40;99.90
11840;DHT22;5979;50.800;4.904;2023-11-19T06:28:01;11.40;99.90
11840;DHT22;5979;50.800;4.904;2023-11-19T06:30:26;11.30;99.90
11840;DHT22;5979;50.800;4.904;2023-11-19T06:32:54;11.30;99.90
11840;DHT22;5979;50.800;4.904;2023-11-19T06:35:19;11.30;99.90
11840;DHT22;5979;50.800;4.904;2023-11-19T06:37:45;11.30;99.90
11840;DHT22;5979;50.800;4.904;2023-11-19T06:40:11;11.30;99.90
11840;DHT22;5979;50.800;4.904;2023-11-19T06:42:37;11.20;99.90
11840;DHT22;5979;50.800;4.904;2023-11-19T06:45:04;11.20;99.90
11840;DHT22;5979;50.800;4.904;2023-11-19T06:47:31;11.20;99.90
11840;DHT22;5979;50.800;4.904;2023-11-19T06:49:58;11.20;99.90
11840;DHT22;5979;50.800;4.904;2023-11-19T06:52:23;11.20;99.90
11840;DHT22;5979;50.800;4.904;2023-11-19T06:54:49;11.20;99.90
11840;DHT22;5979;50.800;4.904;2023-11-19T06:57:15;11.20;99.90
11840;DHT22;5979;50.800;4.904;2023-11-19T06:59:42;11.20;99.90
11840;DHT22;5979;50.800;4.904;2023-11-19T07:02:08;11.20;99.90
11840;DHT22;5979;50.800;4.904;2023-11-19T07:04:34;11.10;99.90
11840;DHT22;5979;50.800;4.904;2023-11-19T07:07:00;11.10;99.90
11840;DHT22;5979;50.800;4.904;2023-11-19T07:09:26;11.20;99.90
11840;DHT22;5979;50.800;4.904;2023-11-19T07:11:52;11.10;99.90
11840;DHT22;5979;50.800;4.904;2023-11-19T07:14:19;11.10;99.90
11840;DHT22;5979;50.800;4.904;2023-11-19T07:16:46;11.20;99.90
11840;DHT22;5979;50.800;4.904;2023-11-19T07:19:11;11.10;99.90
11840;DHT22;5979;50.800;4.904;2023-11-19T07:21:41;11.20;99.90
11840;DHT22;5979;50.800;4.904;2023-11-19T07:24:09;11.10;99.90
11840;DHT22;5979;50.800;4.904;2023-11-19T07:26:35;11.10;99.90
11840;DHT22;5979;50.800;4.904;2023-11-19T07:29:02;11.10;99.90
11840;DHT22;5979;50.800;4.904;2023-11-19T07:31:28;11.10;99.90
11840;DHT22;5979;50.800;4.904;2023-11-19T07:33:54;11.10;99.90
11840;DHT22;5979;50.800;4.904;2023-11-19T07:36:20;11.10;99.90
11840;DHT22;5979;50.800;4.904;2023-11-19T07:38:46;11.10;99.90
11840;DHT22;5979;50.800;4.904;2023-11-19T07:41:13;11.10;99.90
11840;DHT22;5979;50.800;4.904;2023-11-19T07:43:43;11.20;99.90
11840;DHT22;5979;50.800;4.904;2023-11-19T07:46:13;11.20;99.90
11840;DHT22;5979;50.800;4.904;2023-11-19T07:48:40;11.20;99.90
11840;DHT22;5979;50.800;4.904;2023-11-19T07:51:07;11.20;99.90
11840;DHT22;5979;50.800;4.904;2023-11-19T07:53:33;11.30;99.90
11840;DHT22;5979;50.800;4.904;2023-11-19T07:55:59;11.40;99.90
11840;DHT22;5979;50.800;4.904;2023-11-19T07:58:25;11.40;99.90
11840;DHT22;5979;50.800;4.904;2023-11-19T08:00:51;11.50;99.90
11840;DHT22;5979;50.800;4.904;2023-11-19T08:03:17;11.50;99.90
11840;DHT22;5979;50.800;4.904;2023-11-19T08:05:45;11.50;99.90
11840;DHT22;5979;50.800;4.904;2023-11-19T08:08:11;11.60;99.90
11840;DHT22;5979;50.800;4.904;2023-11-19T08:10:37;11.60;99.90
11840;DHT22;5979;50.800;4.904;2023-11-19T08:13:03;11.70;99.90
11840;DHT22;5979;50.800;4.904;2023-11-19T08:15:29;11.80;99.90
11840;DHT22;5979;50.800;4.904;2023-11-19T08:17:54;11.80;99.90
11840;DHT22;5979;50.800;4.904;2023-11-19T08:20:20;11.90;99.90
11840;DHT22;5979;50.800;4.904;2023-11-19T08:22:46;11.90;99.90
11840;DHT22;5979;50.800;4.904;2023-11-19T08:25:12;11.90;99.90
11840;DHT22;5979;50.800;4.904;2023-11-19T08:27:38;12.00;99.90
11840;DHT22;5979;50.800;4.904;2023-11-19T08:30:05;12.00;99.90
11840;DHT22;5979;50.800;4.904;2023-11-19T08:32:31;12.10;99.90
11840;DHT22;5979;50.800;4.904;2023-11-19T08:34:57;12.10;99.90
11840;DHT22;5979;50.800;4.904;2023-11-19T08:37:22;12.20;99.90
11840;DHT22;5979;50.800;4.904;2023-11-19T08:39:49;12.20;99.90
11840;DHT22;5979;50.800;4.904;2023-11-19T08:42:16;12.30;99.90
11840;DHT22;5979;50.800;4.904;2023-11-19T08:44:42;12.30;99.90
11840;DHT22;5979;50.800;4.904;2023-11-19T08:47:12;12.30;99.90
11840;DHT22;5979;50.800;4.904;2023-11-19T08:49:39;12.40;99.90
11840;DHT22;5979;50.800;4.904;2023-11-19T08:52:05;12.40;99.90
11840;DHT22;5979;50.800;4.904;2023-11-19T08:54:33;12.50;99.90
11840;DHT22;5979;50.800;4.904;2023-11-19T08:56:59;12.50;99.90
11840;DHT22;5979;50.800;4.904;2023-11-19T08:59:25;12.60;99.90
11840;DHT22;5979;50.800;4.904;2023-11-19T09:01:51;12.60;99.90
11840;DHT22;5979;50.800;4.904;2023-11-19T09:04:16;12.70;99.90
11840;DHT22;5979;50.800;4.904;2023-11-19T09:06:42;12.70;99.90
11840;DHT22;5979;50.800;4.904;2023-11-19T09:09:08;12.80;99.90
11840;DHT22;5979;50.800;4.904;2023-11-19T09:11:35;12.70;99.90
11840;DHT22;5979;50.800;4.904;2023-11-19T09:14:02;12.80;99.90
11840;DHT22;5979;50.800;4.904;2023-11-19T09:16:27;12.80;99.90
11840;DHT22;5979;50.800;4.904;2023-11-19T09:18:53;12.90;99.90
11840;DHT22;5979;50.800;4.904;2023-11-19T09:21:19;12.90;99.90
11840;DHT22;5979;50.800;4.904;2023-11-19T09:23:45;13.00;99.90
11840;DHT22;5979;50.800;4.904;2023-11-19T09:26:13;13.00;99.90
11840;DHT22;5979;50.800;4.904;2023-11-19T09:28:39;13.00;99.90
11840;DHT22;5979;50.800;4.904;2023-11-19T09:31:15;13.00;99.90
11840;DHT22;5979;50.800;4.904;2023-11-19T09:33:40;13.10;99.90
11840;DHT22;5979;50.800;4.904;2023-11-19T09:36:06;13.10;99.90
11840;DHT22;5979;50.800;4.904;2023-11-19T09:38:32;13.10;99.90
11840;DHT22;5979;50.800;4.904;2023-11-19T09:41:01;13.10;99.90
11840;DHT22;5979;50.800;4.904;2023-11-19T09:43:27;13.20;99.90
11840;DHT22;5979;50.800;4.904;2023-11-19T09:45:56;13.10;99.90
11840;DHT22;5979;50.800;4.904;2023-11-19T09:48:25;13.20;99.90
11840;DHT22;5979;50.800;4.904;2023-11-19T09:50:52;13.20;99.90
11840;DHT22;5979;50.800;4.904;2023-11-19T09:53:18;13.20;99.90
11840;DHT22;5979;50.800;4.904;2023-11-19T09:55:45;13.20;99.90
11840;DHT22;5979;50.800;4.904;2023-11-19T09:58:12;13.20;99.90
11840;DHT22;5979;50.800;4.904;2023-11-19T10:00:39;13.20;99.90
11840;DHT22;5979;50.800;4.904;2023-11-19T10:03:07;13.20;99.90
11840;DHT22;5979;50.800;4.904;2023-11-19T10:05:34;13.20;99.90
11840;DHT22;5979;50.800;4.904;2023-11-19T10:08:01;13.20;99.90
11840;DHT22;5979;50.800;4.904;2023-11-19T10:10:28;13.20;99.90
11840;DHT22;5979;50.800;4.904;2023-11-19T10:12:54;13.10;99.90
11840;DHT22;5979;50.800;4.904;2023-11-19T10:15:22;13.00;99.90
11840;DHT22;5979;50.800;4.904;2023-11-19T10:17:50;13.00;99.90
11840;DHT22;5979;50.800;4.904;2023-11-19T10:20:45;13.00;99.90
11840;DHT22;5979;50.800;4.904;2023-11-19T10:23:11;13.20;99.90
11840;DHT22;5979;50.800;4.904;2023-11-19T10:25:37;13.20;99.90
11840;DHT22;5979;50.800;4.904;2023-11-19T10:28:03;13.30;99.90
11840;DHT22;5979;50.800;4.904;2023-11-19T10:30:30;13.40;99.90
11840;DHT22;5979;50.800;4.904;2023-11-19T10:33:12;13.40;99.90
11840;DHT22;5979;50.800;4.904;2023-11-19T10:35:58;13.50;99.90
11840;DHT22;5979;50.800;4.904;2023-11-19T10:38:25;13.50;99.90
11840;DHT22;5979;50.800;4.904;2023-11-19T10:40:52;13.60;99.90
11840;DHT22;5979;50.800;4.904;2023-11-19T10:43:19;13.60;99.90
11840;DHT22;5979;50.800;4.904;2023-11-19T10:45:45;13.60;99.90
11840;DHT22;5979;50.800;4.904;2023-11-19T10:48:11;13.70;99.90
11840;DHT22;5979;50.800;4.904;2023-11-19T10:50:39;13.70;99.90
11840;DHT22;5979;50.800;4.904;2023-11-19T10:53:07;13.80;99.90
11840;DHT22;5979;50.800;4.904;2023-11-19T10:55:34;13.90;99.90
11840;DHT22;5979;50.800;4.904;2023-11-19T10:58:05;13.90;99.90
11840;DHT22;5979;50.800;4.904;2023-11-19T11:03:09;14.10;99.90
11840;DHT22;5979;50.800;4.904;2023-11-19T11:05:37;14.20;99.90
11840;DHT22;5979;50.800;4.904;2023-11-19T11:08:06;14.30;99.90
11840;DHT22;5979;50.800;4.904;2023-11-19T11:10:35;14.30;99.90
11840;DHT22;5979;50.800;4.904;2023-11-19T11:13:05;14.30;99.90
11840;DHT22;5979;50.800;4.904;2023-11-19T11:15:31;14.30;99.90
11840;DHT22;5979;50.800;4.904;2023-11-19T11:18:02;14.30;99.90
11840;DHT22;5979;50.800;4.904;2023-11-19T11:20:33;14.30;99.90
11840;DHT22;5979;50.800;4.904;2023-11-19T11:29:03;14.40;99.90
11840;DHT22;5979;50.800;4.904;2023-11-19T11:37:30;14.50;99.90
11840;DHT22;5979;50.800;4.904;2023-11-19T11:39:57;14.50;99.90
11840;DHT22;5979;50.800;4.904;2023-11-19T11:50:19;14.20;99.90
11840;DHT22;5979;50.800;4.904;2023-11-19T11:55:27;14.20;99.90
11840;DHT22;5979;50.800;4.904;2023-11-19T11:57:56;14.20;99.90
11840;DHT22;5979;50.800;4.904;2023-11-19T12:02:49;14.20;99.90
11840;DHT22;5979;50.800;4.904;2023-11-19T12:05:15;14.20;99.90
11840;DHT22;5979;50.800;4.904;2023-11-19T12:07:41;14.10;99.90
11840;DHT22;5979;50.800;4.904;2023-11-19T12:10:08;14.10;99.90
11840;DHT22;5979;50.800;4.904;2023-11-19T12:12:34;14.10;99.90
11840;DHT22;5979;50.800;4.904;2023-11-19T12:15:09;14.10;99.90
11840;DHT22;5979;50.800;4.904;2023-11-19T12:17:49;14.10;99.90
11840;DHT22;5979;50.800;4.904;2023-11-19T12:20:16;14.00;99.90
11840;DHT22;5979;50.800;4.904;2023-11-19T12:22:48;14.00;99.90
11840;DHT22;5979;50.800;4.904;2023-11-19T12:25:15;14.00;99.90
11840;DHT22;5979;50.800;4.904;2023-11-19T12:27:47;14.00;99.90
11840;DHT22;5979;50.800;4.904;2023-11-19T12:30:23;14.00;99.90
11840;DHT22;5979;50.800;4.904;2023-11-19T12:32:50;14.00;99.90
11840;DHT22;5979;50.800;4.904;2023-11-19T12:35:17;14.00;99.90
11840;DHT22;5979;50.800;4.904;2023-11-19T12:40:17;14.00;99.90
11840;DHT22;5979;50.800;4.904;2023-11-19T12:42:44;14.10;99.90
11840;DHT22;5979;50.800;4.904;2023-11-19T12:45:10;14.10;99.90
11840;DHT22;5979;50.800;4.904;2023-11-19T12:47:37;14.10;99.90
11840;DHT22;5979;50.800;4.904;2023-11-19T12:50:03;14.10;99.90
11840;DHT22;5979;50.800;4.904;2023-11-19T12:52:30;14.10;99.90
11840;DHT22;5979;50.800;4.904;2023-11-19T12:54:56;14.00;99.90
11840;DHT22;5979;50.800;4.904;2023-11-19T12:57:43;14.00;99.90
11840;DHT22;5979;50.800;4.904;2023-11-19T13:00:20;13.90;99.90
11840;DHT22;5979;50.800;4.904;2023-11-19T13:02:51;13.90;99.90
11840;DHT22;5979;50.800;4.904;2023-11-19T13:05:26;13.90;99.90
11840;DHT22;5979;50.800;4.904;2023-11-19T13:08:02;13.80;99.90
11840;DHT22;5979;50.800;4.904;2023-11-19T13:10:49;13.90;99.90
11840;DHT22;5979;50.800;4.904;2023-11-19T13:13:15;13.80;99.90
11840;DHT22;5979;50.800;4.904;2023-11-19T13:15:41;13.80;99.90
11840;DHT22;5979;50.800;4.904;2023-11-19T13:18:06;13.90;99.90
11840;DHT22;5979;50.800;4.904;2023-11-19T13:20:32;13.90;99.90
11840;DHT22;5979;50.800;4.904;2023-11-19T13:23:25;13.90;99.90
11840;DHT22;5979;50.800;4.904;2023-11-19T13:25:51;14.00;99.90
11840;DHT22;5979;50.800;4.904;2023-11-19T13:28:17;13.90;99.90
11840;DHT22;5979;50.800;4.904;2023-11-19T13:30:43;14.00;99.90
11840;DHT22;5979;50.800;4.904;2023-11-19T13:33:09;14.10;99.90
11840;DHT22;5979;50.800;4.904;2023-11-19T13:35:38;14.00;99.90
11840;DHT22;5979;50.800;4.904;2023-11-19T13:38:06;14.00;99.90
11840;DHT22;5979;50.800;4.904;2023-11-19T13:40:34;13.90;99.90
11840;DHT22;5979;50.800;4.904;2023-11-19T13:43:00;13.90;99.90
11840;DHT22;5979;50.800;4.904;2023-11-19T13:45:26;13.80;99.90
11840;DHT22;5979;50.800;4.904;2023-11-19T13:47:52;13.70;99.90
11840;DHT22;5979;50.800;4.904;2023-11-19T13:50:17;13.50;99.90
11840;DHT22;5979;50.800;4.904;2023-11-19T13:52:44;13.40;99.90
11840;DHT22;5979;50.800;4.904;2023-11-19T13:55:12;13.40;99.90
11840;DHT22;5979;50.800;4.904;2023-11-19T13:57:38;13.30;99.90
11840;DHT22;5979;50.800;4.904;2023-11-19T14:00:06;13.30;99.90
11840;DHT22;5979;50.800;4.904;2023-11-19T14:02:35;13.20;99.90
11840;DHT22;5979;50.800;4.904;2023-11-19T14:05:01;13.10;99.90
11840;DHT22;5979;50.800;4.904;2023-11-19T14:07:28;13.10;99.90
11840;DHT22;5979;50.800;4.904;2023-11-19T14:09:54;13.20;99.90
11840;DHT22;5979;50.800;4.904;2023-11-19T14:12:20;13.20;99.90
11840;DHT22;5979;50.800;4.904;2023-11-19T14:14:46;13.20;99.90
11840;DHT22;5979;50.800;4.904;2023-11-19T14:17:11;13.20;99.90
11840;DHT22;5979;50.800;4.904;2023-11-19T14:19:38;13.20;99.90
11840;DHT22;5979;50.800;4.904;2023-11-19T14:22:05;13.20;99.90
11840;DHT22;5979;50.800;4.904;2023-11-19T14:24:31;13.10;99.90
11840;DHT22;5979;50.800;4.904;2023-11-19T14:26:56;13.10;99.90
11840;DHT22;5979;50.800;4.904;2023-11-19T14:29:24;13.00;99.90
11840;DHT22;5979;50.800;4.904;2023-11-19T14:32:00;13.00;99.90
11840;DHT22;5979;50.800;4.904;2023-11-19T14:34:26;13.00;99.90
11840;DHT22;5979;50.800;4.904;2023-11-19T14:36:52;13.00;99.90
11840;DHT22;5979;50.800;4.904;2023-11-19T14:39:19;13.10;99.90
11840;DHT22;5979;50.800;4.904;2023-11-19T14:41:44;13.10;99.90
11840;DHT22;5979;50.800;4.904;2023-11-19T14:44:10;13.10;99.90
11840;DHT22;5979;50.800;4.904;2023-11-19T14:46:36;13.10;99.90
11840;DHT22;5979;50.800;4.904;2023-11-19T14:49:02;13.10;99.90
11840;DHT22;5979;50.800;4.904;2023-11-19T14:51:30;13.10;99.90
11840;DHT22;5979;50.800;4.904;2023-11-19T14:53:56;13.10;99.90
11840;DHT22;5979;50.800;4.904;2023-11-19T14:56:21;13.10;99.90
11840;DHT22;5979;50.800;4.904;2023-11-19T14:58:47;13.10;99.90
11840;DHT22;5979;50.800;4.904;2023-11-19T15:01:16;13.10;99.90
11840;DHT22;5979;50.800;4.904;2023-11-19T15:03:42;13.10;99.90
11840;DHT22;5979;50.800;4.904;2023-11-19T15:06:07;13.10;99.90
11840;DHT22;5979;50.800;4.904;2023-11-19T15:08:33;13.10;99.90
11840;DHT22;5979;50.800;4.904;2023-11-19T15:10:59;13.10;99.90
11840;DHT22;5979;50.800;4.904;2023-11-19T15:13:27;13.10;99.90
11840;DHT22;5979;50.800;4.904;2023-11-19T15:15:53;13.10;99.90
11840;DHT22;5979;50.800;4.904;2023-11-19T15:18:20;13.10;99.90
11840;DHT22;5979;50.800;4.904;2023-11-19T15:20:46;13.10;99.90
11840;DHT22;5979;50.800;4.904;2023-11-19T15:23:16;13.10;99.90
11840;DHT22;5979;50.800;4.904;2023-11-19T15:25:42;13.10;99.90
11840;DHT22;5979;50.800;4.904;2023-11-19T15:28:08;13.10;99.90
11840;DHT22;5979;50.800;4.904;2023-11-19T15:30:33;13.10;99.90
11840;DHT22;5979;50.800;4.904;2023-11-19T15:32:59;13.10;99.90
11840;DHT22;5979;50.800;4.904;2023-11-19T15:35:25;13.10;99.90
11840;DHT22;5979;50.800;4.904;2023-11-19T15:37:51;13.10;99.90
11840;DHT22;5979;50.800;4.904;2023-11-19T15:40:18;13.00;99.90
11840;DHT22;5979;50.800;4.904;2023-11-19T15:42:43;13.00;99.90
11840;DHT22;5979;50.800;4.904;2023-11-19T15:45:11;12.90;99.90
11840;DHT22;5979;50.800;4.904;2023-11-19T15:47:38;12.90;99.90
11840;DHT22;5979;50.800;4.904;2023-11-19T15:50:06;12.80;99.90
11840;DHT22;5979;50.800;4.904;2023-11-19T15:52:36;12.80;99.90
11840;DHT22;5979;50.800;4.904;2023-11-19T15:55:02;12.80;99.90
11840;DHT22;5979;50.800;4.904;2023-11-19T15:57:28;12.80;99.90
11840;DHT22;5979;50.800;4.904;2023-11-19T15:59:54;12.90;99.90
11840;DHT22;5979;50.800;4.904;2023-11-19T16:02:19;12.90;99.90
11840;DHT22;5979;50.800;4.904;2023-11-19T16:04:45;12.90;99.90
11840;DHT22;5979;50.800;4.904;2023-11-19T16:07:14;12.90;99.90
11840;DHT22;5979;50.800;4.904;2023-11-19T16:09:40;12.90;99.90
11840;DHT22;5979;50.800;4.904;2023-11-19T16:12:07;12.90;99.90
11840;DHT22;5979;50.800;4.904;2023-11-19T16:14:34;13.00;99.90